sensor_id;sensor_type;location;lat;lon;timestamp;P1;durP1;ratioP1;P2;durP2;ratioP2
44606;SDS011;30315;46.072;14.474;2024-02-23T00:00:09;1.35;;;1.35;;
44606;SDS011;30315;46.072;14.474;2024-02-23T00:02:37;1.17;;;1.17;;
44606;SDS011;30315;46.072;14.474;2024-02-23T00:05:12;1.10;;;1.10;;
44606;SDS011;30315;46.072;14.474;2024-02-23T00:07:42;1.42;;;1.42;;
44606;SDS011;30315;46.072;14.474;2024-02-23T00:10:09;1.30;;;1.30;;
44606;SDS011;30315;46.072;14.474;2024-02-23T00:12:38;1.20;;;1.13;;
44606;SDS011;30315;46.072;14.474;2024-02-23T00:17:35;2.45;;;1.70;;
44606;SDS011;30315;46.072;14.474;2024-02-23T00:20:05;1.35;;;1.35;;
44606;SDS011;30315;46.072;14.474;2024-02-23T00:22:37;3.10;;;1.55;;
44606;SDS011;30315;46.072;14.474;2024-02-23T00:25:05;1.48;;;1.48;;
44606;SDS011;30315;46.072;14.474;2024-02-23T00:30:06;1.40;;;1.40;;
44606;SDS011;30315;46.072;14.474;2024-02-23T00:32:34;1.63;;;1.52;;
44606;SDS011;30315;46.072;14.474;2024-02-23T00:35:03;1.33;;;1.33;;
44606;SDS011;30315;46.072;14.474;2024-02-23T00:37:36;1.23;;;1.23;;
44606;SDS011;30315;46.072;14.474;2024-02-23T00:40:04;0.95;;;0.95;;
44606;SDS011;30315;46.072;14.474;2024-02-23T00:42:32;1.30;;;1.30;;
44606;SDS011;30315;46.072;14.474;2024-02-23T00:45:01;1.02;;;1.02;;
44606;SDS011;30315;46.072;14.474;2024-02-23T00:47:29;1.15;;;1.02;;
44606;SDS011;30315;46.072;14.474;2024-02-23T00:49:58;1.50;;;1.50;;
44606;SDS011;30315;46.072;14.474;2024-02-23T00:52:28;1.20;;;1.20;;
44606;SDS011;30315;46.072;14.474;2024-02-23T00:54:59;1.27;;;1.27;;
44606;SDS011;30315;46.072;14.474;2024-02-23T00:57:26;1.38;;;1.27;;
44606;SDS011;30315;46.072;14.474;2024-02-23T00:59:57;1.50;;;1.50;;
44606;SDS011;30315;46.072;14.474;2024-02-23T01:02:28;1.70;;;1.60;;
44606;SDS011;30315;46.072;14.474;2024-02-23T01:04:56;1.90;;;1.80;;
44606;SDS011;30315;46.072;14.474;2024-02-23T01:07:25;1.33;;;1.33;;
44606;SDS011;30315;46.072;14.474;2024-02-23T01:10:01;1.15;;;1.15;;
44606;SDS011;30315;46.072;14.474;2024-02-23T01:12:30;2.38;;;1.45;;
44606;SDS011;30315;46.072;14.474;2024-02-23T01:14:59;4.88;;;1.70;;
44606;SDS011;30315;46.072;14.474;2024-02-23T01:17:31;1.13;;;1.13;;
44606;SDS011;30315;46.072;14.474;2024-02-23T01:20:02;1.55;;;1.50;;
44606;SDS011;30315;46.072;14.474;2024-02-23T01:22:31;8.18;;;1.40;;
44606;SDS011;30315;46.072;14.474;2024-02-23T01:24:58;1.33;;;1.33;;
44606;SDS011;30315;46.072;14.474;2024-02-23T01:27:26;1.75;;;1.65;;
44606;SDS011;30315;46.072;14.474;2024-02-23T01:29:53;1.70;;;1.60;;
44606;SDS011;30315;46.072;14.474;2024-02-23T01:32:20;1.40;;;1.40;;
44606;SDS011;30315;46.072;14.474;2024-02-23T01:34:50;1.52;;;1.52;;
44606;SDS011;30315;46.072;14.474;2024-02-23T01:37:18;1.40;;;1.40;;
44606;SDS011;30315;46.072;14.474;2024-02-23T01:39:47;1.27;;;1.27;;
44606;SDS011;30315;46.072;14.474;2024-02-23T01:42:17;1.60;;;1.60;;
44606;SDS011;30315;46.072;14.474;2024-02-23T01:44:44;1.40;;;1.38;;
44606;SDS011;30315;46.072;14.474;2024-02-23T01:47:11;1.95;;;1.30;;
44606;SDS011;30315;46.072;14.474;2024-02-23T01:49:42;1.13;;;1.13;;
44606;SDS011;30315;46.072;14.474;2024-02-23T01:52:10;1.08;;;1.08;;
44606;SDS011;30315;46.072;14.474;2024-02-23T01:54:39;1.23;;;1.23;;
44606;SDS011;30315;46.072;14.474;2024-02-23T01:57:07;1.92;;;1.83;;
44606;SDS011;30315;46.072;14.474;2024-02-23T01:59:57;3.45;;;1.75;;
44606;SDS011;30315;46.072;14.474;2024-02-23T02:02:25;1.60;;;1.50;;
44606;SDS011;30315;46.072;14.474;2024-02-23T02:04:57;1.58;;;1.48;;
44606;SDS011;30315;46.072;14.474;2024-02-23T02:07:24;1.80;;;1.58;;
44606;SDS011;30315;46.072;14.474;2024-02-23T02:09:52;1.08;;;1.08;;
44606;SDS011;30315;46.072;14.474;2024-02-23T02:12:26;1.50;;;1.50;;
44606;SDS011;30315;46.072;14.474;2024-02-23T02:14:55;5.28;;;1.55;;
44606;SDS011;30315;46.072;14.474;2024-02-23T02:17:23;4.10;;;1.40;;
44606;SDS011;30315;46.072;14.474;2024-02-23T02:19:52;1.15;;;1.15;;
44606;SDS011;30315;46.072;14.474;2024-02-23T02:22:21;1.30;;;1.27;;
44606;SDS011;30315;46.072;14.474;2024-02-23T02:24:49;1.35;;;1.35;;
44606;SDS011;30315;46.072;14.474;2024-02-23T10:33:30;3.85;;;3.42;;
44606;SDS011;30315;46.072;14.474;2024-02-23T10:46:03;3.25;;;2.83;;
44606;SDS011;30315;46.072;14.474;2024-02-23T10:51:13;2.83;;;2.63;;
44606;SDS011;30315;46.072;14.474;2024-02-23T10:53:48;2.78;;;2.58;;
44606;SDS011;30315;46.072;14.474;2024-02-23T10:56:18;2.78;;;2.65;;
44606;SDS011;30315;46.072;14.474;2024-02-23T10:58:46;5.47;;;2.03;;
44606;SDS011;30315;46.072;14.474;2024-02-23T11:01:13;2.33;;;2.20;;
44606;SDS011;30315;46.072;14.474;2024-02-23T11:03:43;2.53;;;2.33;;
44606;SDS011;30315;46.072;14.474;2024-02-23T11:06:16;5.88;;;2.50;;
44606;SDS011;30315;46.072;14.474;2024-02-23T11:08:53;2.00;;;1.88;;
44606;SDS011;30315;46.072;14.474;2024-02-23T11:15:30;2.97;;;2.72;;
44606;SDS011;30315;46.072;14.474;2024-02-23T11:46:32;2.30;;;2.10;;
44606;SDS011;30315;46.072;14.474;2024-02-23T11:53:15;2.08;;;1.98;;
44606;SDS011;30315;46.072;14.474;2024-02-23T12:04:51;4.05;;;2.63;;
44606;SDS011;30315;46.072;14.474;2024-02-23T12:09:01;2.65;;;2.55;;
44606;SDS011;30315;46.072;14.474;2024-02-23T12:13:18;2.20;;;2.10;;
44606;SDS011;30315;46.072;14.474;2024-02-23T12:17:50;3.30;;;3.00;;
44606;SDS011;30315;46.072;14.474;2024-02-23T12:47:04;3.80;;;3.45;;
44606;SDS011;30315;46.072;14.474;2024-02-23T12:49:46;3.22;;;3.03;;
44606;SDS011;30315;46.072;14.474;2024-02-23T12:52:18;3.00;;;2.85;;
44606;SDS011;30315;46.072;14.474;2024-02-23T12:55:03;3.20;;;3.00;;
44606;SDS011;30315;46.072;14.474;2024-02-23T13:00:46;4.03;;;3.72;;
44606;SDS011;30315;46.072;14.474;2024-02-23T13:03:13;2.90;;;2.70;;
44606;SDS011;30315;46.072;14.474;2024-02-23T13:05:41;2.70;;;2.60;;
44606;SDS011;30315;46.072;14.474;2024-02-23T13:08:08;2.78;;;2.60;;
44606;SDS011;30315;46.072;14.474;2024-02-23T13:10:40;3.38;;;3.05;;
44606;SDS011;30315;46.072;14.474;2024-02-23T13:13:07;3.60;;;3.30;;
44606;SDS011;30315;46.072;14.474;2024-02-23T13:18:46;3.95;;;3.65;;
44606;SDS011;30315;46.072;14.474;2024-02-23T13:21:16;4.32;;;3.92;;
44606;SDS011;30315;46.072;14.474;2024-02-23T14:03:07;4.10;;;2.92;;
44606;SDS011;30315;46.072;14.474;2024-02-23T14:05:58;10.05;;;2.40;;
44606;SDS011;30315;46.072;14.474;2024-02-23T14:08:36;2.35;;;2.25;;
44606;SDS011;30315;46.072;14.474;2024-02-23T14:11:06;2.85;;;2.75;;
44606;SDS011;30315;46.072;14.474;2024-02-23T14:13:40;2.40;;;2.30;;
44606;SDS011;30315;46.072;14.474;2024-02-23T14:16:19;2.90;;;2.80;;
44606;SDS011;30315;46.072;14.474;2024-02-23T14:18:55;10.10;;;3.00;;
44606;SDS011;30315;46.072;14.474;2024-02-23T14:21:33;3.73;;;3.43;;
44606;SDS011;30315;46.072;14.474;2024-02-23T14:24:07;2.97;;;2.80;;
44606;SDS011;30315;46.072;14.474;2024-02-23T14:26:46;3.07;;;2.87;;
44606;SDS011;30315;46.072;14.474;2024-02-23T14:29:19;2.75;;;2.65;;
44606;SDS011;30315;46.072;14.474;2024-02-23T14:31:51;2.58;;;2.47;;
44606;SDS011;30315;46.072;14.474;2024-02-23T14:34:19;3.08;;;2.88;;
44606;SDS011;30315;46.072;14.474;2024-02-23T14:37:04;4.38;;;3.00;;
44606;SDS011;30315;46.072;14.474;2024-02-23T14:40:04;10.27;;;3.42;;
44606;SDS011;30315;46.072;14.474;2024-02-23T14:42:55;3.67;;;3.47;;
44606;SDS011;30315;46.072;14.474;2024-02-23T14:49:59;3.00;;;2.83;;
44606;SDS011;30315;46.072;14.474;2024-02-23T14:52:35;3.85;;;3.50;;
44606;SDS011;30315;46.072;14.474;2024-02-23T14:55:02;2.95;;;2.75;;
44606;SDS011;30315;46.072;14.474;2024-02-23T14:57:30;3.60;;;3.40;;
44606;SDS011;30315;46.072;14.474;2024-02-23T14:59:57;4.18;;;3.78;;
44606;SDS011;30315;46.072;14.474;2024-02-23T15:02:25;4.60;;;3.90;;
44606;SDS011;30315;46.072;14.474;2024-02-23T15:04:53;3.50;;;3.30;;
44606;SDS011;30315;46.072;14.474;2024-02-23T15:07:21;5.03;;;3.17;;
44606;SDS011;30315;46.072;14.474;2024-02-23T15:09:48;3.78;;;3.58;;
44606;SDS011;30315;46.072;14.474;2024-02-23T15:12:16;4.03;;;3.65;;
44606;SDS011;30315;46.072;14.474;2024-02-23T15:14:45;4.55;;;4.18;;
44606;SDS011;30315;46.072;14.474;2024-02-23T15:17:12;5.60;;;4.45;;
44606;SDS011;30315;46.072;14.474;2024-02-23T15:19:40;5.05;;;4.57;;
44606;SDS011;30315;46.072;14.474;2024-02-23T15:22:08;5.18;;;4.78;;
44606;SDS011;30315;46.072;14.474;2024-02-23T15:24:41;4.45;;;4.15;;
44606;SDS011;30315;46.072;14.474;2024-02-23T15:27:12;5.95;;;4.35;;
44606;SDS011;30315;46.072;14.474;2024-02-23T15:29:39;5.22;;;3.92;;
44606;SDS011;30315;46.072;14.474;2024-02-23T15:32:07;8.10;;;5.63;;
44606;SDS011;30315;46.072;14.474;2024-02-23T15:34:39;5.05;;;4.65;;
44606;SDS011;30315;46.072;14.474;2024-02-23T15:37:07;4.35;;;4.00;;
44606;SDS011;30315;46.072;14.474;2024-02-23T15:39:35;4.30;;;3.90;;
44606;SDS011;30315;46.072;14.474;2024-02-23T15:42:02;8.07;;;4.25;;
44606;SDS011;30315;46.072;14.474;2024-02-23T15:44:29;4.78;;;4.28;;
44606;SDS011;30315;46.072;14.474;2024-02-23T15:46:57;13.45;;;5.82;;
44606;SDS011;30315;46.072;14.474;2024-02-23T15:49:30;5.53;;;5.03;;
44606;SDS011;30315;46.072;14.474;2024-02-23T15:52:19;6.20;;;4.70;;
44606;SDS011;30315;46.072;14.474;2024-02-23T15:54:46;9.15;;;5.75;;
44606;SDS011;30315;46.072;14.474;2024-02-23T15:57:16;6.10;;;5.43;;
44606;SDS011;30315;46.072;14.474;2024-02-23T15:59:44;12.27;;;5.78;;
44606;SDS011;30315;46.072;14.474;2024-02-23T16:02:30;9.77;;;5.97;;
44606;SDS011;30315;46.072;14.474;2024-02-23T16:04:57;5.47;;;4.50;;
44606;SDS011;30315;46.072;14.474;2024-02-23T16:07:29;5.13;;;4.72;;
44606;SDS011;30315;46.072;14.474;2024-02-23T16:10:00;6.75;;;5.65;;
44606;SDS011;30315;46.072;14.474;2024-02-23T16:12:31;11.38;;;6.10;;
44606;SDS011;30315;46.072;14.474;2024-02-23T16:15:00;14.82;;;5.93;;
44606;SDS011;30315;46.072;14.474;2024-02-23T16:17:28;7.28;;;5.60;;
44606;SDS011;30315;46.072;14.474;2024-02-23T16:19:59;9.25;;;5.53;;
44606;SDS011;30315;46.072;14.474;2024-02-23T16:22:27;5.95;;;5.28;;
44606;SDS011;30315;46.072;14.474;2024-02-23T16:24:56;6.10;;;5.40;;
44606;SDS011;30315;46.072;14.474;2024-02-23T16:27:26;7.35;;;5.72;;
44606;SDS011;30315;46.072;14.474;2024-02-23T16:29:54;4.82;;;4.22;;
44606;SDS011;30315;46.072;14.474;2024-02-23T16:32:21;4.30;;;4.00;;
44606;SDS011;30315;46.072;14.474;2024-02-23T16:34:51;4.30;;;4.00;;
44606;SDS011;30315;46.072;14.474;2024-02-23T16:39:51;2.30;;;2.20;;
44606;SDS011;30315;46.072;14.474;2024-02-23T16:42:21;1.90;;;1.80;;
44606;SDS011;30315;46.072;14.474;2024-02-23T16:44:48;1.83;;;1.73;;
44606;SDS011;30315;46.072;14.474;2024-02-23T16:47:18;2.35;;;2.25;;
44606;SDS011;30315;46.072;14.474;2024-02-23T16:49:46;1.65;;;1.65;;
44606;SDS011;30315;46.072;14.474;2024-02-23T16:52:21;1.50;;;1.50;;
44606;SDS011;30315;46.072;14.474;2024-02-23T16:54:55;2.10;;;2.00;;
44606;SDS011;30315;46.072;14.474;2024-02-23T16:57:30;1.60;;;1.60;;
44606;SDS011;30315;46.072;14.474;2024-02-23T17:00:01;1.80;;;1.70;;
44606;SDS011;30315;46.072;14.474;2024-02-23T17:02:33;1.70;;;1.63;;
44606;SDS011;30315;46.072;14.474;2024-02-23T17:05:01;2.10;;;2.00;;
44606;SDS011;30315;46.072;14.474;2024-02-23T17:07:29;1.50;;;1.50;;
44606;SDS011;30315;46.072;14.474;2024-02-23T17:09:58;1.83;;;1.73;;
44606;SDS011;30315;46.072;14.474;2024-02-23T17:12:28;1.73;;;1.63;;
44606;SDS011;30315;46.072;14.474;2024-02-23T18:50:31;3.83;;;3.53;;
44606;SDS011;30315;46.072;14.474;2024-02-23T18:52:59;4.90;;;3.75;;
44606;SDS011;30315;46.072;14.474;2024-02-23T18:55:26;4.45;;;4.05;;
44606;SDS011;30315;46.072;14.474;2024-02-23T18:57:55;4.00;;;3.75;;
44606;SDS011;30315;46.072;14.474;2024-02-23T19:00:22;9.43;;;5.10;;
44606;SDS011;30315;46.072;14.474;2024-02-23T19:02:50;3.30;;;3.03;;
44606;SDS011;30315;46.072;14.474;2024-02-23T19:05:17;9.07;;;1.83;;
44606;SDS011;30315;46.072;14.474;2024-02-23T19:07:45;2.30;;;2.08;;
44606;SDS011;30315;46.072;14.474;2024-02-23T19:10:12;2.53;;;2.33;;
44606;SDS011;30315;46.072;14.474;2024-02-23T19:12:39;2.22;;;2.03;;
44606;SDS011;30315;46.072;14.474;2024-02-23T19:15:08;2.00;;;1.90;;
44606;SDS011;30315;46.072;14.474;2024-02-23T19:17:36;1.40;;;1.40;;
44606;SDS011;30315;46.072;14.474;2024-02-23T19:20:05;1.70;;;1.70;;
44606;SDS011;30315;46.072;14.474;2024-02-23T19:22:36;1.63;;;1.52;;
44606;SDS011;30315;46.072;14.474;2024-02-23T19:25:05;1.63;;;1.63;;
44606;SDS011;30315;46.072;14.474;2024-02-23T19:27:33;1.37;;;1.37;;
44606;SDS011;30315;46.072;14.474;2024-02-23T19:30:05;1.38;;;1.38;;
44606;SDS011;30315;46.072;14.474;2024-02-23T19:32:37;2.00;;;1.90;;
44606;SDS011;30315;46.072;14.474;2024-02-23T19:35:07;1.98;;;1.88;;
44606;SDS011;30315;46.072;14.474;2024-02-23T19:37:37;3.13;;;2.70;;
44606;SDS011;30315;46.072;14.474;2024-02-23T19:40:05;2.33;;;2.22;;
44606;SDS011;30315;46.072;14.474;2024-02-23T19:42:34;1.70;;;1.60;;
44606;SDS011;30315;46.072;14.474;2024-02-23T19:45:02;2.08;;;1.98;;
44606;SDS011;30315;46.072;14.474;2024-02-23T19:47:31;1.92;;;1.83;;
44606;SDS011;30315;46.072;14.474;2024-02-23T19:49:59;1.95;;;1.67;;
44606;SDS011;30315;46.072;14.474;2024-02-23T19:52:28;1.25;;;1.25;;
44606;SDS011;30315;46.072;14.474;2024-02-23T19:54:58;4.55;;;1.40;;
44606;SDS011;30315;46.072;14.474;2024-02-23T19:57:25;1.02;;;1.02;;
44606;SDS011;30315;46.072;14.474;2024-02-23T19:59:53;1.13;;;1.13;;
44606;SDS011;30315;46.072;14.474;2024-02-23T20:02:21;1.15;;;1.15;;
44606;SDS011;30315;46.072;14.474;2024-02-23T20:04:48;0.88;;;0.88;;
44606;SDS011;30315;46.072;14.474;2024-02-23T20:07:19;1.10;;;1.10;;
44606;SDS011;30315;46.072;14.474;2024-02-23T20:09:47;1.02;;;1.02;;
44606;SDS011;30315;46.072;14.474;2024-02-23T20:12:15;1.50;;;1.40;;
44606;SDS011;30315;46.072;14.474;2024-02-23T20:14:44;1.20;;;1.15;;
44606;SDS011;30315;46.072;14.474;2024-02-23T20:17:14;1.10;;;1.10;;
44606;SDS011;30315;46.072;14.474;2024-02-23T20:19:43;4.13;;;1.17;;
44606;SDS011;30315;46.072;14.474;2024-02-23T20:22:11;1.10;;;1.10;;
44606;SDS011;30315;46.072;14.474;2024-02-23T20:24:42;1.13;;;1.13;;
44606;SDS011;30315;46.072;14.474;2024-02-23T20:27:10;1.38;;;1.38;;
44606;SDS011;30315;46.072;14.474;2024-02-23T20:29:37;1.10;;;1.10;;
44606;SDS011;30315;46.072;14.474;2024-02-23T20:32:05;1.10;;;1.10;;
44606;SDS011;30315;46.072;14.474;2024-02-23T20:34:49;1.05;;;1.05;;
44606;SDS011;30315;46.072;14.474;2024-02-23T20:37:16;1.20;;;1.20;;
44606;SDS011;30315;46.072;14.474;2024-02-23T20:39:44;1.08;;;1.08;;
44606;SDS011;30315;46.072;14.474;2024-02-23T20:42:11;1.30;;;1.30;;
44606;SDS011;30315;46.072;14.474;2024-02-23T20:44:38;1.15;;;1.15;;
44606;SDS011;30315;46.072;14.474;2024-02-23T20:47:08;1.52;;;1.52;;
44606;SDS011;30315;46.072;14.474;2024-02-23T20:49:37;1.20;;;1.20;;
44606;SDS011;30315;46.072;14.474;2024-02-23T20:52:04;1.10;;;1.10;;
44606;SDS011;30315;46.072;14.474;2024-02-23T20:54:34;1.30;;;1.30;;
44606;SDS011;30315;46.072;14.474;2024-02-23T20:57:02;1.23;;;1.23;;
44606;SDS011;30315;46.072;14.474;2024-02-23T20:59:31;1.38;;;1.38;;
44606;SDS011;30315;46.072;14.474;2024-02-23T21:02:01;1.15;;;1.10;;
44606;SDS011;30315;46.072;14.474;2024-02-23T21:04:28;1.60;;;1.50;;
44606;SDS011;30315;46.072;14.474;2024-02-23T21:06:55;1.10;;;1.10;;
44606;SDS011;30315;46.072;14.474;2024-02-23T21:09:24;1.23;;;1.23;;
44606;SDS011;30315;46.072;14.474;2024-02-23T21:11:52;2.05;;;1.20;;
44606;SDS011;30315;46.072;14.474;2024-02-23T21:14:21;1.30;;;1.30;;
44606;SDS011;30315;46.072;14.474;2024-02-23T21:16:50;0.95;;;0.95;;
44606;SDS011;30315;46.072;14.474;2024-02-23T21:19:18;1.50;;;1.40;;
44606;SDS011;30315;46.072;14.474;2024-02-23T21:21:45;1.10;;;1.10;;
44606;SDS011;30315;46.072;14.474;2024-02-23T21:24:15;1.52;;;1.50;;
44606;SDS011;30315;46.072;14.474;2024-02-23T21:26:42;1.17;;;1.17;;
44606;SDS011;30315;46.072;14.474;2024-02-23T21:29:13;1.38;;;1.10;;
44606;SDS011;30315;46.072;14.474;2024-02-23T21:31:42;1.08;;;1.08;;
44606;SDS011;30315;46.072;14.474;2024-02-23T21:34:10;0.82;;;0.82;;
44606;SDS011;30315;46.072;14.474;2024-02-23T21:36:39;1.13;;;1.13;;
44606;SDS011;30315;46.072;14.474;2024-02-23T21:39:09;1.50;;;1.50;;
44606;SDS011;30315;46.072;14.474;2024-02-23T21:41:36;1.50;;;1.50;;
44606;SDS011;30315;46.072;14.474;2024-02-23T21:44:03;1.40;;;1.40;;
44606;SDS011;30315;46.072;14.474;2024-02-23T21:46:32;1.30;;;1.30;;
44606;SDS011;30315;46.072;14.474;2024-02-23T21:48:59;1.30;;;1.30;;
44606;SDS011;30315;46.072;14.474;2024-02-23T21:51:29;1.88;;;1.77;;
44606;SDS011;30315;46.072;14.474;2024-02-23T21:53:56;2.15;;;1.67;;
44606;SDS011;30315;46.072;14.474;2024-02-23T21:56:24;1.60;;;1.60;;
44606;SDS011;30315;46.072;14.474;2024-02-23T21:58:51;2.13;;;2.03;;
44606;SDS011;30315;46.072;14.474;2024-02-23T22:01:23;2.00;;;1.90;;
44606;SDS011;30315;46.072;14.474;2024-02-23T22:03:50;1.83;;;1.75;;
44606;SDS011;30315;46.072;14.474;2024-02-23T22:06:20;2.05;;;1.95;;
44606;SDS011;30315;46.072;14.474;2024-02-23T22:08:52;1.60;;;1.60;;
44606;SDS011;30315;46.072;14.474;2024-02-23T22:11:19;1.95;;;1.80;;
44606;SDS011;30315;46.072;14.474;2024-02-23T22:13:46;1.92;;;1.88;;
44606;SDS011;30315;46.072;14.474;2024-02-23T22:16:14;2.03;;;1.92;;
44606;SDS011;30315;46.072;14.474;2024-02-23T22:18:41;2.03;;;1.92;;
44606;SDS011;30315;46.072;14.474;2024-02-23T22:21:08;1.17;;;1.17;;
44606;SDS011;30315;46.072;14.474;2024-02-23T22:23:40;2.25;;;2.15;;
44606;SDS011;30315;46.072;14.474;2024-02-23T22:26:08;1.60;;;1.50;;
44606;SDS011;30315;46.072;14.474;2024-02-23T22:28:35;2.40;;;1.77;;
44606;SDS011;30315;46.072;14.474;2024-02-23T22:31:06;1.65;;;1.65;;
44606;SDS011;30315;46.072;14.474;2024-02-23T22:33:34;1.90;;;1.80;;
44606;SDS011;30315;46.072;14.474;2024-02-23T22:36:02;1.25;;;1.25;;
44606;SDS011;30315;46.072;14.474;2024-02-23T22:38:35;1.63;;;1.63;;
44606;SDS011;30315;46.072;14.474;2024-02-23T22:41:03;2.13;;;2.03;;
44606;SDS011;30315;46.072;14.474;2024-02-23T22:43:30;1.52;;;1.42;;
44606;SDS011;30315;46.072;14.474;2024-02-23T22:46:01;1.83;;;1.83;;
44606;SDS011;30315;46.072;14.474;2024-02-23T22:48:28;1.05;;;1.05;;
44606;SDS011;30315;46.072;14.474;2024-02-23T22:50:56;1.50;;;1.40;;
44606;SDS011;30315;46.072;14.474;2024-02-23T22:53:27;1.65;;;1.55;;
44606;SDS011;30315;46.072;14.474;2024-02-23T22:55:58;3.95;;;1.95;;
44606;SDS011;30315;46.072;14.474;2024-02-23T22:58:25;1.50;;;1.40;;
44606;SDS011;30315;46.072;14.474;2024-02-23T23:00:59;5.22;;;1.77;;
44606;SDS011;30315;46.072;14.474;2024-02-23T23:03:29;1.15;;;1.15;;
44606;SDS011;30315;46.072;14.474;2024-02-23T23:06:03;1.40;;;1.40;;
44606;SDS011;30315;46.072;14.474;2024-02-23T23:08:34;1.20;;;1.20;;
44606;SDS011;30315;46.072;14.474;2024-02-23T23:11:03;1.42;;;1.42;;
44606;SDS011;30315;46.072;14.474;2024-02-23T23:13:31;1.73;;;1.63;;
44606;SDS011;30315;46.072;14.474;2024-02-23T23:15:58;8.15;;;1.90;;
44606;SDS011;30315;46.072;14.474;2024-02-23T23:18:29;4.63;;;1.77;;
44606;SDS011;30315;46.072;14.474;2024-02-23T23:20:57;3.70;;;1.80;;
44606;SDS011;30315;46.072;14.474;2024-02-23T23:23:25;1.50;;;1.50;;
44606;SDS011;30315;46.072;14.474;2024-02-23T23:25:53;1.90;;;1.80;;
44606;SDS011;30315;46.072;14.474;2024-02-23T23:28:20;1.75;;;1.67;;
44606;SDS011;30315;46.072;14.474;2024-02-23T23:30:49;1.42;;;1.42;;
44606;SDS011;30315;46.072;14.474;2024-02-23T23:35:48;1.30;;;1.30;;
44606;SDS011;30315;46.072;14.474;2024-02-23T23:38:16;1.33;;;1.33;;
44606;SDS011;30315;46.072;14.474;2024-02-23T23:40:45;1.30;;;1.30;;
44606;SDS011;30315;46.072;14.474;2024-02-23T23:43:15;1.25;;;1.25;;
44606;SDS011;30315;46.072;14.474;2024-02-23T23:45:42;1.10;;;1.10;;
44606;SDS011;30315;46.072;14.474;2024-02-23T23:48:11;1.10;;;1.10;;
44606;SDS011;30315;46.072;14.474;2024-02-23T23:50:43;1.67;;;1.60;;
44606;SDS011;30315;46.072;14.474;2024-02-23T23:53:12;1.60;;;1.55;;
44606;SDS011;30315;46.072;14.474;2024-02-23T23:55:39;1.70;;;1.60;;
44606;SDS011;30315;46.072;14.474;2024-02-23T23:58:07;1.40;;;1.40;;
